Aars, Denmark
Current Conditions -  °F | °C
As of 9:50 AM on Friday 19 Dec 2014 (Local Time) from EKYT Reporting Station
Few Clouds Few Clouds  
Wind Chill: 34°   Ceiling: Unl
Heat Index: 41°   Visibility: 6mi
Dew Point: 39°   Wind: 12mph
Humidity: 93%   Direction: 240°WSW
Pressure: 29.32"   Gusts: NA
Location:  56.8°N, 9.51°E
Report Text: EKYT 190850Z 24010KT 9999 FEW040 05/04 Q0993
Loading
Personal Weather Stations






























Interactive Weather Map New forecast layout! Learn more

10-Day Weather Forecast

Advertisements
Track Severe Weather on mobile